sensor_id;sensor_type;location;lat;lon;timestamp;temperature;humidity
69938;DHT22;57248;47.320;15.998;2022-09-21T00:00:23;3.35;86.48
69938;DHT22;57248;47.320;15.998;2022-09-21T00:02:49;3.48;86.85
69938;DHT22;57248;47.320;15.998;2022-09-21T00:05:14;3.45;86.66
69938;DHT22;57248;47.320;15.998;2022-09-21T00:07:41;3.43;86.41
69938;DHT22;57248;47.320;15.998;2022-09-21T00:10:07;3.47;87.08
69938;DHT22;57248;47.320;15.998;2022-09-21T00:12:33;3.45;87.37
69938;DHT22;57248;47.320;15.998;2022-09-21T00:14:58;3.53;87.05
69938;DHT22;57248;47.320;15.998;2022-09-21T00:17:24;3.33;88.18
69938;DHT22;57248;47.320;15.998;2022-09-21T00:19:51;3.26;89.61
69938;DHT22;57248;47.320;15.998;2022-09-21T00:22:17;3.34;89.94
69938;DHT22;57248;47.320;15.998;2022-09-21T00:24:42;3.51;89.46
69938;DHT22;57248;47.320;15.998;2022-09-21T00:27:08;3.63;88.68
69938;DHT22;57248;47.320;15.998;2022-09-21T00:29:33;3.45;88.32
69938;DHT22;57248;47.320;15.998;2022-09-21T00:31:59;3.54;87.47
69938;DHT22;57248;47.320;15.998;2022-09-21T00:34:25;3.47;87.69
69938;DHT22;57248;47.320;15.998;2022-09-21T00:36:51;3.41;88.04
69938;DHT22;57248;47.320;15.998;2022-09-21T00:39:17;3.60;89.14
69938;DHT22;57248;47.320;15.998;2022-09-21T00:41:42;3.41;88.61
69938;DHT22;57248;47.320;15.998;2022-09-21T00:46:44;3.58;88.64
69938;DHT22;57248;47.320;15.998;2022-09-21T00:49:10;3.48;87.97
69938;DHT22;57248;47.320;15.998;2022-09-21T00:51:36;3.53;89.05
69938;DHT22;57248;47.320;15.998;2022-09-21T00:54:06;3.53;87.82
69938;DHT22;57248;47.320;15.998;2022-09-21T00:56:34;3.43;88.76
69938;DHT22;57248;47.320;15.998;2022-09-21T00:59:01;3.45;88.34
69938;DHT22;57248;47.320;15.998;2022-09-21T01:01:27;3.45;88.12
69938;DHT22;57248;47.320;15.998;2022-09-21T01:03:53;3.45;88.53
69938;DHT22;57248;47.320;15.998;2022-09-21T01:06:21;3.41;87.95
69938;DHT22;57248;47.320;15.998;2022-09-21T01:08:49;3.37;87.62
69938;DHT22;57248;47.320;15.998;2022-09-21T01:11:28;3.34;87.87
69938;DHT22;57248;47.320;15.998;2022-09-21T01:22:12;3.10;89.09
69938;DHT22;57248;47.320;15.998;2022-09-21T01:27:30;2.93;90.70
69938;DHT22;57248;47.320;15.998;2022-09-21T01:30:00;3.07;90.17
69938;DHT22;57248;47.320;15.998;2022-09-21T01:35:05;3.10;90.31
69938;DHT22;57248;47.320;15.998;2022-09-21T01:38:03;3.31;91.24
69938;DHT22;57248;47.320;15.998;2022-09-21T01:40:41;3.37;90.71
69938;DHT22;57248;47.320;15.998;2022-09-21T01:43:11;3.09;90.36
69938;DHT22;57248;47.320;15.998;2022-09-21T01:45:42;3.10;89.79
69938;DHT22;57248;47.320;15.998;2022-09-21T01:48:11;3.13;89.69
69938;DHT22;57248;47.320;15.998;2022-09-21T01:50:41;3.12;89.18
69938;DHT22;57248;47.320;15.998;2022-09-21T01:53:17;3.13;89.21
69938;DHT22;57248;47.320;15.998;2022-09-21T01:55:57;3.20;89.86
69938;DHT22;57248;47.320;15.998;2022-09-21T01:58:34;3.12;90.60
69938;DHT22;57248;47.320;15.998;2022-09-21T02:01:01;3.16;89.92
69938;DHT22;57248;47.320;15.998;2022-09-21T02:03:35;3.02;92.23
69938;DHT22;57248;47.320;15.998;2022-09-21T02:06:02;3.17;91.03
69938;DHT22;57248;47.320;15.998;2022-09-21T02:08:32;3.17;90.25
69938;DHT22;57248;47.320;15.998;2022-09-21T02:10:59;3.10;90.72
69938;DHT22;57248;47.320;15.998;2022-09-21T02:13:29;3.04;91.03
69938;DHT22;57248;47.320;15.998;2022-09-21T02:21:30;3.10;89.85
69938;DHT22;57248;47.320;15.998;2022-09-21T02:29:48;2.83;91.30
69938;DHT22;57248;47.320;15.998;2022-09-21T02:34:50;2.81;91.85
69938;DHT22;57248;47.320;15.998;2022-09-21T02:37:30;2.95;91.30
69938;DHT22;57248;47.320;15.998;2022-09-21T02:42:26;2.92;92.68
69938;DHT22;57248;47.320;15.998;2022-09-21T02:45:25;2.96;91.37
69938;DHT22;57248;47.320;15.998;2022-09-21T02:47:59;2.89;93.01
69938;DHT22;57248;47.320;15.998;2022-09-21T02:50:33;3.10;91.18
69938;DHT22;57248;47.320;15.998;2022-09-21T02:53:00;3.07;91.23
69938;DHT22;57248;47.320;15.998;2022-09-21T02:55:29;2.79;91.17
69938;DHT22;57248;47.320;15.998;2022-09-21T02:57:56;2.69;91.95
69938;DHT22;57248;47.320;15.998;2022-09-21T03:00:21;2.66;92.60
69938;DHT22;57248;47.320;15.998;2022-09-21T03:02:47;2.72;92.94
69938;DHT22;57248;47.320;15.998;2022-09-21T03:05:13;2.95;92.09
69938;DHT22;57248;47.320;15.998;2022-09-21T03:07:39;2.68;91.60
69938;DHT22;57248;47.320;15.998;2022-09-21T03:10:06;2.61;91.53
69938;DHT22;57248;47.320;15.998;2022-09-21T03:12:33;2.45;91.97
69938;DHT22;57248;47.320;15.998;2022-09-21T03:14:59;2.65;91.66
69938;DHT22;57248;47.320;15.998;2022-09-21T03:17:25;2.56;92.12
69938;DHT22;57248;47.320;15.998;2022-09-21T03:19:51;2.64;91.12
69938;DHT22;57248;47.320;15.998;2022-09-21T03:22:20;2.59;91.72
69938;DHT22;57248;47.320;15.998;2022-09-21T03:24:46;2.71;91.14
69938;DHT22;57248;47.320;15.998;2022-09-21T03:27:16;2.40;91.17
69938;DHT22;57248;47.320;15.998;2022-09-21T03:29:42;2.27;92.31
69938;DHT22;57248;47.320;15.998;2022-09-21T03:32:09;2.45;90.95
69938;DHT22;57248;47.320;15.998;2022-09-21T03:34:34;2.48;91.30
69938;DHT22;57248;47.320;15.998;2022-09-21T03:37:01;2.38;91.23
69938;DHT22;57248;47.320;15.998;2022-09-21T03:39:27;2.42;91.41
69938;DHT22;57248;47.320;15.998;2022-09-21T03:41:53;2.41;90.46
69938;DHT22;57248;47.320;15.998;2022-09-21T03:44:21;2.15;90.93
69938;DHT22;57248;47.320;15.998;2022-09-21T03:46:46;2.18;90.49
69938;DHT22;57248;47.320;15.998;2022-09-21T03:49:12;2.18;90.75
69938;DHT22;57248;47.320;15.998;2022-09-21T03:51:37;2.24;92.33
69938;DHT22;57248;47.320;15.998;2022-09-21T03:54:04;2.37;93.39
69938;DHT22;57248;47.320;15.998;2022-09-21T03:56:29;2.54;93.24
69938;DHT22;57248;47.320;15.998;2022-09-21T03:58:55;2.28;92.05
69938;DHT22;57248;47.320;15.998;2022-09-21T04:01:21;2.40;94.10
69938;DHT22;57248;47.320;15.998;2022-09-21T04:03:47;2.62;93.30
69938;DHT22;57248;47.320;15.998;2022-09-21T04:06:14;2.44;91.04
69938;DHT22;57248;47.320;15.998;2022-09-21T04:08:39;2.03;91.75
69938;DHT22;57248;47.320;15.998;2022-09-21T04:11:13;2.03;91.32
69938;DHT22;57248;47.320;15.998;2022-09-21T04:13:39;2.04;91.87
69938;DHT22;57248;47.320;15.998;2022-09-21T04:16:07;2.20;92.10
69938;DHT22;57248;47.320;15.998;2022-09-21T04:18:34;2.18;92.05
69938;DHT22;57248;47.320;15.998;2022-09-21T04:21:00;2.14;91.64
69938;DHT22;57248;47.320;15.998;2022-09-21T04:23:26;2.07;93.09
69938;DHT22;57248;47.320;15.998;2022-09-21T04:25:52;2.11;91.89
69938;DHT22;57248;47.320;15.998;2022-09-21T04:28:19;2.06;92.35
69938;DHT22;57248;47.320;15.998;2022-09-21T04:30:45;2.13;92.62
69938;DHT22;57248;47.320;15.998;2022-09-21T04:33:10;2.03;92.33
69938;DHT22;57248;47.320;15.998;2022-09-21T04:35:35;2.15;92.19
69938;DHT22;57248;47.320;15.998;2022-09-21T04:38:01;2.04;91.30
69938;DHT22;57248;47.320;15.998;2022-09-21T04:40:27;2.03;92.90
69938;DHT22;57248;47.320;15.998;2022-09-21T04:42:53;2.07;93.60
69938;DHT22;57248;47.320;15.998;2022-09-21T04:45:21;2.18;92.25
69938;DHT22;57248;47.320;15.998;2022-09-21T04:47:47;2.13;92.39
69938;DHT22;57248;47.320;15.998;2022-09-21T04:50:13;2.13;91.79
69938;DHT22;57248;47.320;15.998;2022-09-21T04:52:39;2.17;91.07
69938;DHT22;57248;47.320;15.998;2022-09-21T04:55:06;2.15;91.14
69938;DHT22;57248;47.320;15.998;2022-09-21T04:57:32;2.20;91.47
69938;DHT22;57248;47.320;15.998;2022-09-21T04:59:57;2.10;91.99
69938;DHT22;57248;47.320;15.998;2022-09-21T05:02:23;2.09;91.95
69938;DHT22;57248;47.320;15.998;2022-09-21T05:04:48;1.96;92.26
69938;DHT22;57248;47.320;15.998;2022-09-21T05:07:14;2.04;92.98
69938;DHT22;57248;47.320;15.998;2022-09-21T05:09:40;2.27;92.29
69938;DHT22;57248;47.320;15.998;2022-09-21T05:12:24;2.49;93.07
69938;DHT22;57248;47.320;15.998;2022-09-21T05:14:50;2.35;92.08
69938;DHT22;57248;47.320;15.998;2022-09-21T05:17:15;2.34;91.45
69938;DHT22;57248;47.320;15.998;2022-09-21T05:19:41;2.58;91.09
69938;DHT22;57248;47.320;15.998;2022-09-21T05:22:07;2.59;91.23
69938;DHT22;57248;47.320;15.998;2022-09-21T05:24:32;2.51;91.52
69938;DHT22;57248;47.320;15.998;2022-09-21T05:26:58;2.72;90.75
69938;DHT22;57248;47.320;15.998;2022-09-21T05:29:24;2.65;90.02
69938;DHT22;57248;47.320;15.998;2022-09-21T05:32:19;2.79;90.83
69938;DHT22;57248;47.320;15.998;2022-09-21T05:37:39;3.30;91.45
69938;DHT22;57248;47.320;15.998;2022-09-21T05:40:09;3.48;91.38
69938;DHT22;57248;47.320;15.998;2022-09-21T05:42:35;3.61;90.58
69938;DHT22;57248;47.320;15.998;2022-09-21T05:45:01;3.57;90.86
69938;DHT22;57248;47.320;15.998;2022-09-21T05:56:01;4.67;89.85
69938;DHT22;57248;47.320;15.998;2022-09-21T06:02:03;4.95;89.15
69938;DHT22;57248;47.320;15.998;2022-09-21T06:04:32;5.23;88.52
69938;DHT22;57248;47.320;15.998;2022-09-21T06:06:57;5.52;87.35
69938;DHT22;57248;47.320;15.998;2022-09-21T06:09:23;5.78;87.35
69938;DHT22;57248;47.320;15.998;2022-09-21T06:11:50;6.18;86.59
69938;DHT22;57248;47.320;15.998;2022-09-21T06:14:15;6.49;85.93
69938;DHT22;57248;47.320;15.998;2022-09-21T06:16:49;6.82;84.65
69938;DHT22;57248;47.320;15.998;2022-09-21T06:19:15;7.20;84.02
69938;DHT22;57248;47.320;15.998;2022-09-21T06:21:40;7.55;83.97
69938;DHT22;57248;47.320;15.998;2022-09-21T06:24:06;7.73;82.91
69938;DHT22;57248;47.320;15.998;2022-09-21T06:26:32;7.89;81.86
69938;DHT22;57248;47.320;15.998;2022-09-21T06:28:57;8.36;80.92
69938;DHT22;57248;47.320;15.998;2022-09-21T06:31:23;8.60;81.21
69938;DHT22;57248;47.320;15.998;2022-09-21T06:33:48;8.99;80.05
69938;DHT22;57248;47.320;15.998;2022-09-21T06:36:14;9.50;77.15
69938;DHT22;57248;47.320;15.998;2022-09-21T06:38:40;10.11;77.49
69938;DHT22;57248;47.320;15.998;2022-09-21T06:41:05;10.06;75.39
69938;DHT22;57248;47.320;15.998;2022-09-21T06:43:31;9.90;76.64
69938;DHT22;57248;47.320;15.998;2022-09-21T06:45:58;10.32;74.67
69938;DHT22;57248;47.320;15.998;2022-09-21T06:48:25;11.21;76.45
69938;DHT22;57248;47.320;15.998;2022-09-21T06:50:56;11.34;73.67
69938;DHT22;57248;47.320;15.998;2022-09-21T06:53:22;11.69;71.05
69938;DHT22;57248;47.320;15.998;2022-09-21T06:55:48;11.49;70.47
69938;DHT22;57248;47.320;15.998;2022-09-21T06:58:13;11.92;70.49
69938;DHT22;57248;47.320;15.998;2022-09-21T07:00:39;12.20;70.13
69938;DHT22;57248;47.320;15.998;2022-09-21T07:03:04;12.19;67.39
69938;DHT22;57248;47.320;15.998;2022-09-21T07:05:32;12.40;68.60
69938;DHT22;57248;47.320;15.998;2022-09-21T07:07:58;13.12;66.72
69938;DHT22;57248;47.320;15.998;2022-09-21T07:10:24;13.57;65.97
69938;DHT22;57248;47.320;15.998;2022-09-21T07:12:50;13.09;65.88
69938;DHT22;57248;47.320;15.998;2022-09-21T07:15:17;13.59;65.24
69938;DHT22;57248;47.320;15.998;2022-09-21T07:17:44;14.21;64.36
69938;DHT22;57248;47.320;15.998;2022-09-21T07:20:10;15.07;61.23
69938;DHT22;57248;47.320;15.998;2022-09-21T07:22:36;15.08;57.81
69938;DHT22;57248;47.320;15.998;2022-09-21T07:25:04;15.81;58.92
69938;DHT22;57248;47.320;15.998;2022-09-21T07:27:31;16.51;56.25
69938;DHT22;57248;47.320;15.998;2022-09-21T07:29:56;16.00;54.22
69938;DHT22;57248;47.320;15.998;2022-09-21T07:32:22;16.17;54.31
69938;DHT22;57248;47.320;15.998;2022-09-21T07:34:48;16.07;52.82
69938;DHT22;57248;47.320;15.998;2022-09-21T07:37:13;15.95;53.17
69938;DHT22;57248;47.320;15.998;2022-09-21T07:39:39;16.46;52.84
69938;DHT22;57248;47.320;15.998;2022-09-21T07:42:05;16.85;49.93
69938;DHT22;57248;47.320;15.998;2022-09-21T07:44:30;16.72;49.32
69938;DHT22;57248;47.320;15.998;2022-09-21T07:46:56;16.31;50.16
69938;DHT22;57248;47.320;15.998;2022-09-21T07:49:22;16.51;50.78
69938;DHT22;57248;47.320;15.998;2022-09-21T07:51:48;16.55;52.75
69938;DHT22;57248;47.320;15.998;2022-09-21T07:54:14;16.82;48.57
69938;DHT22;57248;47.320;15.998;2022-09-21T07:56:40;17.62;46.18
69938;DHT22;57248;47.320;15.998;2022-09-21T07:59:08;18.31;45.44
69938;DHT22;57248;47.320;15.998;2022-09-21T08:01:37;18.65;45.13
69938;DHT22;57248;47.320;15.998;2022-09-21T08:04:05;17.75;47.48
69938;DHT22;57248;47.320;15.998;2022-09-21T08:06:32;16.92;47.82
69938;DHT22;57248;47.320;15.998;2022-09-21T08:09:02;18.53;45.92
69938;DHT22;57248;47.320;15.998;2022-09-21T08:11:30;17.88;42.07
69938;DHT22;57248;47.320;15.998;2022-09-21T08:14:01;18.16;43.99
69938;DHT22;57248;47.320;15.998;2022-09-21T08:16:28;18.63;44.06
69938;DHT22;57248;47.320;15.998;2022-09-21T08:18:54;18.38;43.38
69938;DHT22;57248;47.320;15.998;2022-09-21T08:21:20;18.87;41.84
69938;DHT22;57248;47.320;15.998;2022-09-21T08:23:46;18.09;44.51
69938;DHT22;57248;47.320;15.998;2022-09-21T08:26:15;20.68;40.31
69938;DHT22;57248;47.320;15.998;2022-09-21T08:28:43;21.93;35.15
69938;DHT22;57248;47.320;15.998;2022-09-21T08:31:09;22.83;33.83
69938;DHT22;57248;47.320;15.998;2022-09-21T08:33:34;21.87;34.79
69938;DHT22;57248;47.320;15.998;2022-09-21T08:36:01;19.81;39.89
69938;DHT22;57248;47.320;15.998;2022-09-21T08:38:32;19.21;41.37
69938;DHT22;57248;47.320;15.998;2022-09-21T08:41:00;18.67;41.76
69938;DHT22;57248;47.320;15.998;2022-09-21T08:43:39;19.06;42.85
69938;DHT22;57248;47.320;15.998;2022-09-21T08:46:09;18.80;43.09
69938;DHT22;57248;47.320;15.998;2022-09-21T08:48:42;18.67;42.42
69938;DHT22;57248;47.320;15.998;2022-09-21T08:51:13;19.45;39.77
69938;DHT22;57248;47.320;15.998;2022-09-21T08:53:44;19.85;41.72
69938;DHT22;57248;47.320;15.998;2022-09-21T08:56:12;20.94;37.11
69938;DHT22;57248;47.320;15.998;2022-09-21T08:58:38;19.96;38.33
69938;DHT22;57248;47.320;15.998;2022-09-21T09:01:45;19.04;39.41
69938;DHT22;57248;47.320;15.998;2022-09-21T09:10:18;18.55;39.82
69938;DHT22;57248;47.320;15.998;2022-09-21T09:18:10;17.22;42.14
69938;DHT22;57248;47.320;15.998;2022-09-21T09:20:56;17.12;42.22
69938;DHT22;57248;47.320;15.998;2022-09-21T09:23:33;17.32;43.18
69938;DHT22;57248;47.320;15.998;2022-09-21T09:29:31;19.15;39.36
69938;DHT22;57248;47.320;15.998;2022-09-21T09:31:50;23.04;34.31
69938;DHT22;57248;47.320;15.998;2022-09-21T09:34:34;21.61;34.56
69938;DHT22;57248;47.320;15.998;2022-09-21T09:37:10;22.01;35.23
69938;DHT22;57248;47.320;15.998;2022-09-21T09:39:36;25.72;31.85
69938;DHT22;57248;47.320;15.998;2022-09-21T09:50:36;21.42;35.26
69938;DHT22;57248;47.320;15.998;2022-09-21T09:53:11;20.22;35.54
69938;DHT22;57248;47.320;15.998;2022-09-21T09:55:43;19.68;36.93
69938;DHT22;57248;47.320;15.998;2022-09-21T10:01:05;19.64;38.28
69938;DHT22;57248;47.320;15.998;2022-09-21T10:03:30;20.06;36.74
69938;DHT22;57248;47.320;15.998;2022-09-21T10:05:56;19.27;39.10
69938;DHT22;57248;47.320;15.998;2022-09-21T10:08:39;19.57;37.51
69938;DHT22;57248;47.320;15.998;2022-09-21T10:11:06;19.06;38.82
69938;DHT22;57248;47.320;15.998;2022-09-21T10:13:34;19.21;38.44
69938;DHT22;57248;47.320;15.998;2022-09-21T10:16:12;23.72;32.63
69938;DHT22;57248;47.320;15.998;2022-09-21T10:18:48;23.77;30.42
69938;DHT22;57248;47.320;15.998;2022-09-21T10:21:21;22.29;31.96
69938;DHT22;57248;47.320;15.998;2022-09-21T10:23:49;20.47;33.92
69938;DHT22;57248;47.320;15.998;2022-09-21T10:26:16;20.29;38.38
69938;DHT22;57248;47.320;15.998;2022-09-21T10:29:17;19.96;36.66
69938;DHT22;57248;47.320;15.998;2022-09-21T10:31:57;19.61;36.96
69938;DHT22;57248;47.320;15.998;2022-09-21T10:34:29;19.82;36.86
69938;DHT22;57248;47.320;15.998;2022-09-21T10:36:57;19.71;37.77
69938;DHT22;57248;47.320;15.998;2022-09-21T10:39:32;19.72;38.31
69938;DHT22;57248;47.320;15.998;2022-09-21T10:42:11;19.50;38.10
69938;DHT22;57248;47.320;15.998;2022-09-21T10:44:49;18.72;38.69
69938;DHT22;57248;47.320;15.998;2022-09-21T10:47:15;21.31;35.00
69938;DHT22;57248;47.320;15.998;2022-09-21T10:49:56;19.44;39.29
69938;DHT22;57248;47.320;15.998;2022-09-21T10:52:41;19.87;38.70
69938;DHT22;57248;47.320;15.998;2022-09-21T10:55:20;23.65;33.86
69938;DHT22;57248;47.320;15.998;2022-09-21T10:57:47;22.17;34.70
69938;DHT22;57248;47.320;15.998;2022-09-21T11:02:46;20.67;35.34
69938;DHT22;57248;47.320;15.998;2022-09-21T11:05:20;19.69;36.07
69938;DHT22;57248;47.320;15.998;2022-09-21T11:07:52;19.24;38.43
69938;DHT22;57248;47.320;15.998;2022-09-21T11:10:29;19.10;38.55
69938;DHT22;57248;47.320;15.998;2022-09-21T11:13:37;17.83;39.42
69938;DHT22;57248;47.320;15.998;2022-09-21T11:16:21;18.00;40.42
69938;DHT22;57248;47.320;15.998;2022-09-21T11:27:48;25.67;29.28
69938;DHT22;57248;47.320;15.998;2022-09-21T11:30:18;23.54;30.48
69938;DHT22;57248;47.320;15.998;2022-09-21T11:33:39;28.12;25.93
69938;DHT22;57248;47.320;15.998;2022-09-21T11:38:53;27.24;25.56
69938;DHT22;57248;47.320;15.998;2022-09-21T11:46:54;26.28;25.44
69938;DHT22;57248;47.320;15.998;2022-09-21T11:57:42;31.51;20.51
69938;DHT22;57248;47.320;15.998;2022-09-21T12:00:17;31.30;20.51
69938;DHT22;57248;47.320;15.998;2022-09-21T12:05:43;30.24;22.20
69938;DHT22;57248;47.320;15.998;2022-09-21T12:13:53;21.11;33.70
69938;DHT22;57248;47.320;15.998;2022-09-21T12:18:55;21.16;33.75
69938;DHT22;57248;47.320;15.998;2022-09-21T12:21:29;20.12;36.72
69938;DHT22;57248;47.320;15.998;2022-09-21T12:24:04;20.19;36.26
69938;DHT22;57248;47.320;15.998;2022-09-21T12:26:38;20.06;35.70
69938;DHT22;57248;47.320;15.998;2022-09-21T12:35:06;27.37;27.54
69938;DHT22;57248;47.320;15.998;2022-09-21T12:38:32;31.62;22.46
69938;DHT22;57248;47.320;15.998;2022-09-21T12:40:46;32.46;21.16
69938;DHT22;57248;47.320;15.998;2022-09-21T12:46:00;32.56;19.27
69938;DHT22;57248;47.320;15.998;2022-09-21T12:51:17;26.88;24.22
69938;DHT22;57248;47.320;15.998;2022-09-21T12:53:47;28.08;25.19
69938;DHT22;57248;47.320;15.998;2022-09-21T12:56:23;25.73;25.87
69938;DHT22;57248;47.320;15.998;2022-09-21T13:07:50;20.88;32.14
69938;DHT22;57248;47.320;15.998;2022-09-21T13:10:54;20.36;32.91
69938;DHT22;57248;47.320;15.998;2022-09-21T13:15:52;20.50;33.33
69938;DHT22;57248;47.320;15.998;2022-09-21T13:18:40;22.01;33.04
69938;DHT22;57248;47.320;15.998;2022-09-21T13:21:20;28.35;24.92
69938;DHT22;57248;47.320;15.998;2022-09-21T13:24:24;31.81;21.17
69938;DHT22;57248;47.320;15.998;2022-09-21T13:26:53;33.87;19.00
69938;DHT22;57248;47.320;15.998;2022-09-21T13:34:28;33.47;19.28
69938;DHT22;57248;47.320;15.998;2022-09-21T13:45:01;21.70;34.09
69938;DHT22;57248;47.320;15.998;2022-09-21T13:47:36;19.97;34.35
69938;DHT22;57248;47.320;15.998;2022-09-21T13:50:23;20.26;35.39
69938;DHT22;57248;47.320;15.998;2022-09-21T13:53:04;19.20;36.12
69938;DHT22;57248;47.320;15.998;2022-09-21T13:55:33;18.94;37.36
69938;DHT22;57248;47.320;15.998;2022-09-21T13:58:03;19.13;37.91
69938;DHT22;57248;47.320;15.998;2022-09-21T14:00:57;20.29;36.76
69938;DHT22;57248;47.320;15.998;2022-09-21T14:03:34;19.90;36.90
69938;DHT22;57248;47.320;15.998;2022-09-21T14:08:36;19.21;37.06
69938;DHT22;57248;47.320;15.998;2022-09-21T14:11:06;19.51;37.79
69938;DHT22;57248;47.320;15.998;2022-09-21T14:13:41;18.89;39.48
69938;DHT22;57248;47.320;15.998;2022-09-21T14:29:51;18.82;40.25
69938;DHT22;57248;47.320;15.998;2022-09-21T14:32:27;19.02;39.49
69938;DHT22;57248;47.320;15.998;2022-09-21T14:34:58;19.24;40.28
69938;DHT22;57248;47.320;15.998;2022-09-21T14:37:41;18.80;38.86
69938;DHT22;57248;47.320;15.998;2022-09-21T14:40:23;18.42;38.94
69938;DHT22;57248;47.320;15.998;2022-09-21T14:42:50;18.56;39.95
69938;DHT22;57248;47.320;15.998;2022-09-21T14:45:19;18.48;38.39
69938;DHT22;57248;47.320;15.998;2022-09-21T14:47:59;18.55;38.37
69938;DHT22;57248;47.320;15.998;2022-09-21T14:50:40;17.91;38.04
69938;DHT22;57248;47.320;15.998;2022-09-21T15:07:36;18.02;38.33
69938;DHT22;57248;47.320;15.998;2022-09-21T15:10:31;19.97;35.42
69938;DHT22;57248;47.320;15.998;2022-09-21T15:18:44;18.82;36.80
69938;DHT22;57248;47.320;15.998;2022-09-21T15:21:21;19.54;35.22
69938;DHT22;57248;47.320;15.998;2022-09-21T15:23:50;19.39;36.32
69938;DHT22;57248;47.320;15.998;2022-09-21T15:26:32;18.66;35.05
69938;DHT22;57248;47.320;15.998;2022-09-21T15:29:00;18.49;35.24
69938;DHT22;57248;47.320;15.998;2022-09-21T15:31:31;18.01;36.66
69938;DHT22;57248;47.320;15.998;2022-09-21T15:33:58;17.53;37.34
69938;DHT22;57248;47.320;15.998;2022-09-21T15:36:28;17.67;37.63
69938;DHT22;57248;47.320;15.998;2022-09-21T15:38:55;17.43;38.81
69938;DHT22;57248;47.320;15.998;2022-09-21T15:41:37;17.45;38.72
69938;DHT22;57248;47.320;15.998;2022-09-21T15:46:39;17.54;38.92
69938;DHT22;57248;47.320;15.998;2022-09-21T15:49:15;17.05;40.46
69938;DHT22;57248;47.320;15.998;2022-09-21T15:51:53;16.84;42.50
69938;DHT22;57248;47.320;15.998;2022-09-21T15:54:30;16.75;42.52
69938;DHT22;57248;47.320;15.998;2022-09-21T15:57:00;16.36;43.48
69938;DHT22;57248;47.320;15.998;2022-09-21T15:59:28;15.96;43.32
69938;DHT22;57248;47.320;15.998;2022-09-21T16:01:56;15.81;45.01
69938;DHT22;57248;47.320;15.998;2022-09-21T16:04:25;15.49;45.09
69938;DHT22;57248;47.320;15.998;2022-09-21T16:07:02;15.37;44.95
69938;DHT22;57248;47.320;15.998;2022-09-21T16:09:35;15.24;45.62
69938;DHT22;57248;47.320;15.998;2022-09-21T16:14:46;14.75;47.16
69938;DHT22;57248;47.320;15.998;2022-09-21T16:17:24;15.00;49.40
69938;DHT22;57248;47.320;15.998;2022-09-21T16:22:21;14.24;47.92
69938;DHT22;57248;47.320;15.998;2022-09-21T16:24:50;14.19;49.20
69938;DHT22;57248;47.320;15.998;2022-09-21T16:27:18;13.73;50.37
69938;DHT22;57248;47.320;15.998;2022-09-21T16:29:45;13.73;50.60
69938;DHT22;57248;47.320;15.998;2022-09-21T16:34:48;13.59;51.22
69938;DHT22;57248;47.320;15.998;2022-09-21T16:37:23;13.60;51.92
69938;DHT22;57248;47.320;15.998;2022-09-21T16:39:54;13.26;52.66
69938;DHT22;57248;47.320;15.998;2022-09-21T16:42:22;13.27;52.98
69938;DHT22;57248;47.320;15.998;2022-09-21T16:44:48;13.24;53.35
69938;DHT22;57248;47.320;15.998;2022-09-21T16:47:17;13.35;53.40
69938;DHT22;57248;47.320;15.998;2022-09-21T16:49:47;13.36;52.92
69938;DHT22;57248;47.320;15.998;2022-09-21T16:52:12;13.26;53.77
69938;DHT22;57248;47.320;15.998;2022-09-21T16:54:42;12.98;54.76
69938;DHT22;57248;47.320;15.998;2022-09-21T16:57:09;13.09;54.82
69938;DHT22;57248;47.320;15.998;2022-09-21T16:59:35;12.79;55.29
69938;DHT22;57248;47.320;15.998;2022-09-21T17:02:01;12.62;55.98
69938;DHT22;57248;47.320;15.998;2022-09-21T17:04:30;12.42;56.86
69938;DHT22;57248;47.320;15.998;2022-09-21T17:06:56;12.37;56.14
69938;DHT22;57248;47.320;15.998;2022-09-21T17:09:42;12.21;57.49
69938;DHT22;57248;47.320;15.998;2022-09-21T17:12:14;12.27;57.24
69938;DHT22;57248;47.320;15.998;2022-09-21T17:14:42;12.36;57.62
69938;DHT22;57248;47.320;15.998;2022-09-21T17:17:23;12.10;58.90
69938;DHT22;57248;47.320;15.998;2022-09-21T17:19:51;12.09;58.47
69938;DHT22;57248;47.320;15.998;2022-09-21T17:22:17;12.12;57.15
69938;DHT22;57248;47.320;15.998;2022-09-21T17:24:48;12.20;57.18
69938;DHT22;57248;47.320;15.998;2022-09-21T17:27:14;12.12;57.83
69938;DHT22;57248;47.320;15.998;2022-09-21T17:29:43;12.20;57.89
69938;DHT22;57248;47.320;15.998;2022-09-21T17:32:18;11.78;58.36
69938;DHT22;57248;47.320;15.998;2022-09-21T17:34:44;11.85;57.58
69938;DHT22;57248;47.320;15.998;2022-09-21T17:37:13;11.83;57.77
69938;DHT22;57248;47.320;15.998;2022-09-21T17:39:38;11.59;58.71
69938;DHT22;57248;47.320;15.998;2022-09-21T17:42:16;11.45;59.15
69938;DHT22;57248;47.320;15.998;2022-09-21T17:47:29;11.34;59.12
69938;DHT22;57248;47.320;15.998;2022-09-21T17:50:07;11.39;59.29
69938;DHT22;57248;47.320;15.998;2022-09-21T17:52:41;11.28;60.56
69938;DHT22;57248;47.320;15.998;2022-09-21T17:55:25;11.00;61.88
69938;DHT22;57248;47.320;15.998;2022-09-21T18:01:04;10.33;63.27
69938;DHT22;57248;47.320;15.998;2022-09-21T18:03:33;10.35;64.11
69938;DHT22;57248;47.320;15.998;2022-09-21T18:06:08;10.33;64.11
69938;DHT22;57248;47.320;15.998;2022-09-21T18:08:35;10.29;64.32
69938;DHT22;57248;47.320;15.998;2022-09-21T18:11:17;10.36;62.60
69938;DHT22;57248;47.320;15.998;2022-09-21T18:14:11;10.53;62.28
69938;DHT22;57248;47.320;15.998;2022-09-21T18:24:58;10.11;64.10
69938;DHT22;57248;47.320;15.998;2022-09-21T18:27:25;9.99;64.71
69938;DHT22;57248;47.320;15.998;2022-09-21T18:29:50;9.80;67.00
69938;DHT22;57248;47.320;15.998;2022-09-21T18:32:29;9.70;66.25
69938;DHT22;57248;47.320;15.998;2022-09-21T18:40:45;8.79;69.02
69938;DHT22;57248;47.320;15.998;2022-09-21T18:45:50;9.47;74.09
69938;DHT22;57248;47.320;15.998;2022-09-21T18:51:10;9.02;67.55
69938;DHT22;57248;47.320;15.998;2022-09-21T18:53:48;8.95;68.44
69938;DHT22;57248;47.320;15.998;2022-09-21T18:56:14;8.82;67.83
69938;DHT22;57248;47.320;15.998;2022-09-21T18:58:41;8.68;67.66
69938;DHT22;57248;47.320;15.998;2022-09-21T19:01:14;8.58;67.54
69938;DHT22;57248;47.320;15.998;2022-09-21T19:03:43;8.55;67.78
69938;DHT22;57248;47.320;15.998;2022-09-21T19:06:33;8.31;68.99
69938;DHT22;57248;47.320;15.998;2022-09-21T19:22:47;7.87;70.68
69938;DHT22;57248;47.320;15.998;2022-09-21T19:25:31;7.68;70.19
69938;DHT22;57248;47.320;15.998;2022-09-21T19:28:14;7.48;71.24
69938;DHT22;57248;47.320;15.998;2022-09-21T19:30:44;7.34;71.83
69938;DHT22;57248;47.320;15.998;2022-09-21T19:33:30;7.30;71.69
69938;DHT22;57248;47.320;15.998;2022-09-21T19:35:56;7.18;71.64
69938;DHT22;57248;47.320;15.998;2022-09-21T19:38:25;7.05;72.16